Time;durP1;ratioP1;P1;durP2;ratioP2;P2;SDS_P1;SDS_P2;PMS_P1;PMS_P2;Temp;Humidity;BMP_temperature;BMP_pressure;BME280_temperature;BME280_humidity;BME280_pressure;Samples;Min_cycle;Max_cycle;Signal;HPM_P1;HPM_P2
2022/02/27 00:01:55;;;;;;;7.43;5.77;;;3.80;99.90;;;;;;5014808;28;20252;-56
2022/02/27 00:04:21;;;;;;;7.80;5.43;;;3.70;99.90;;;;;;5014742;28;20196;-57
2022/02/27 00:06:47;;;;;;;8.70;6.70;;;3.60;99.90;;;;;;5014404;28;20176;-53
2022/02/27 00:09:12;;;;;;;7.97;5.67;;;3.40;99.90;;;;;;5014690;28;20254;-58
2022/02/27 00:11:38;;;;;;;9.23;6.27;;;3.40;99.90;;;;;;5014641;28;20650;-58
2022/02/27 00:14:04;;;;;;;7.83;5.70;;;3.50;99.90;;;;;;5014512;28;20828;-56
2022/02/27 00:16:29;;;;;;;9.17;5.80;;;3.50;99.90;;;;;;5014316;28;20179;-55
2022/02/27 00:18:55;;;;;;;9.50;5.87;;;3.60;99.90;;;;;;5014475;28;20668;-54
2022/02/27 00:21:20;;;;;;;7.07;5.40;;;3.60;99.90;;;;;;5014301;28;20227;-55
2022/02/27 00:23:46;;;;;;;11.43;7.00;;;3.60;99.90;;;;;;5014371;28;20197;-56
2022/02/27 00:26:11;;;;;;;8.77;7.00;;;3.60;99.90;;;;;;5014153;28;20176;-58
2022/02/27 00:28:37;;;;;;;9.67;7.27;;;3.60;99.90;;;;;;5014402;28;20176;-58
2022/02/27 00:31:02;;;;;;;10.07;6.83;;;3.60;99.90;;;;;;5014531;28;20264;-53
2022/02/27 00:33:28;;;;;;;9.57;6.40;;;3.40;99.90;;;;;;5014212;28;20177;-52
2022/02/27 00:35:53;;;;;;;8.53;6.37;;;3.50;99.90;;;;;;5013979;28;20183;-56
2022/02/27 00:38:19;;;;;;;8.80;6.23;;;3.40;99.90;;;;;;5014023;28;20546;-58
2022/02/27 00:40:44;;;;;;;9.30;6.23;;;3.30;99.90;;;;;;5014029;28;20212;-58
2022/02/27 00:43:10;;;;;;;8.53;6.20;;;3.30;99.90;;;;;;5014112;28;20260;-57
2022/02/27 00:45:36;;;;;;;8.03;6.07;;;3.40;99.90;;;;;;5013712;28;20192;-55
2022/02/27 00:48:01;;;;;;;8.83;5.73;;;3.40;99.90;;;;;;5013851;28;20223;-56
2022/02/27 00:50:27;;;;;;;9.60;5.87;;;3.40;99.90;;;;;;5013961;28;20176;-58
2022/02/27 00:52:52;;;;;;;7.47;5.70;;;3.50;99.90;;;;;;5013951;28;20259;-54
2022/02/27 00:55:18;;;;;;;8.13;5.70;;;3.50;99.90;;;;;;5012650;28;20640;-57
2022/02/27 00:57:44;;;;;;;8.97;6.00;;;3.50;99.90;;;;;;5013484;28;20227;-55
2022/02/27 01:00:09;;;;;;;9.93;6.37;;;3.40;99.90;;;;;;5013772;28;20188;-58
2022/02/27 01:02:35;;;;;;;10.33;6.27;;;3.40;99.90;;;;;;5013661;28;20209;-52
2022/02/27 01:05:01;;;;;;;9.00;6.17;;;3.30;99.90;;;;;;5013507;28;20192;-57
2022/02/27 01:07:27;;;;;;;7.53;6.10;;;3.40;99.90;;;;;;5013291;28;20214;-58
2022/02/27 01:09:52;;;;;;;8.33;5.47;;;3.30;99.90;;;;;;5013517;28;20226;-58
2022/02/27 01:12:18;;;;;;;6.57;5.80;;;3.30;99.90;;;;;;5013477;28;20610;-56
2022/02/27 01:14:44;;;;;;;8.33;6.20;;;3.20;99.90;;;;;;5013418;28;20196;-55
2022/02/27 01:17:10;;;;;;;10.40;6.63;;;3.10;99.90;;;;;;5013182;28;20173;-57
2022/02/27 01:19:36;;;;;;;9.07;6.20;;;3.10;99.90;;;;;;5013442;28;20234;-57
2022/02/27 01:22:02;;;;;;;10.93;6.93;;;3.00;99.90;;;;;;5013192;28;20451;-57
2022/02/27 01:24:28;;;;;;;13.50;9.07;;;3.00;99.90;;;;;;5013158;28;20204;-59
2022/02/27 01:26:53;;;;;;;20.30;12.13;;;3.00;99.90;;;;;;5011709;28;20275;-58
2022/02/27 01:29:19;;;;;;;10.20;6.70;;;2.90;99.90;;;;;;5013358;28;20601;-58
2022/02/27 01:31:44;;;;;;;8.93;6.20;;;2.70;99.90;;;;;;5013121;28;20230;-58
2022/02/27 01:34:10;;;;;;;9.47;6.53;;;2.60;99.90;;;;;;5013109;28;20639;-58
2022/02/27 01:36:36;;;;;;;11.70;8.23;;;2.60;99.90;;;;;;5012846;28;20264;-59
2022/02/27 01:39:02;;;;;;;12.93;7.30;;;2.60;99.90;;;;;;5012596;28;20967;-59
2022/02/27 01:41:28;;;;;;;8.87;7.07;;;2.50;99.90;;;;;;5012610;28;20291;-57
2022/02/27 01:43:54;;;;;;;21.60;12.20;;;2.40;99.90;;;;;;5012868;28;20526;-59
2022/02/27 01:46:19;;;;;;;8.57;6.97;;;2.40;99.90;;;;;;5012674;28;20176;-58
2022/02/27 01:48:45;;;;;;;8.13;6.60;;;2.30;99.90;;;;;;5012783;28;20192;-59
2022/02/27 01:51:11;;;;;;;9.23;6.23;;;2.30;99.90;;;;;;5012738;28;20211;-58
2022/02/27 01:53:37;;;;;;;8.80;6.53;;;2.30;99.90;;;;;;5012677;28;20212;-55
2022/02/27 01:56:03;;;;;;;8.57;7.03;;;2.30;99.90;;;;;;5012439;28;20458;-54
2022/02/27 01:58:30;;;;;;;7.90;6.20;;;2.40;99.90;;;;;;5012908;28;20550;-53
2022/02/27 02:00:57;;;;;;;8.93;6.20;;;2.50;99.90;;;;;;5012558;28;20872;-54
2022/02/27 02:03:23;;;;;;;9.90;6.47;;;2.50;99.90;;;;;;5012573;28;20438;-52
2022/02/27 02:05:49;;;;;;;10.10;7.20;;;2.50;99.90;;;;;;5012236;28;20484;-53
2022/02/27 02:08:15;;;;;;;10.67;7.00;;;2.50;99.90;;;;;;5012449;28;20948;-51
2022/02/27 02:10:41;;;;;;;9.33;7.13;;;2.60;99.90;;;;;;5012396;28;20173;-55
2022/02/27 02:13:07;;;;;;;11.00;6.73;;;2.60;99.90;;;;;;5012493;28;20177;-55
2022/02/27 02:15:33;;;;;;;8.90;6.20;;;2.60;99.90;;;;;;5012114;28;20442;-52
2022/02/27 02:17:58;;;;;;;10.30;6.57;;;2.60;99.90;;;;;;5012373;28;20231;-55
2022/02/27 02:20:24;;;;;;;7.13;6.33;;;2.70;99.90;;;;;;5012432;28;20203;-55
2022/02/27 02:22:50;;;;;;;8.80;6.47;;;2.70;99.90;;;;;;5012189;28;20282;-53
2022/02/27 02:25:15;;;;;;;8.80;6.47;;;2.70;99.90;;;;;;5012182;28;20283;-50
2022/02/27 02:27:42;;;;;;;13.10;7.97;;;2.60;99.90;;;;;;5011983;28;20638;-52
2022/02/27 02:30:09;;;;;;;12.27;7.70;;;2.50;99.90;;;;;;5012489;28;20634;-50
2022/02/27 02:32:49;;;;;;;9.73;7.43;;;2.40;99.90;;;;;;5012164;28;20435;-50
2022/02/27 02:35:14;;;;;;;9.37;7.10;;;2.50;99.90;;;;;;5012046;28;20446;-57
2022/02/27 02:37:40;;;;;;;11.90;7.73;;;2.50;99.90;;;;;;5011854;28;20416;-51
2022/02/27 02:40:06;;;;;;;8.70;6.70;;;2.60;99.90;;;;;;5012238;28;20219;-51
2022/02/27 02:42:37;;;;;;;9.20;6.60;;;2.70;99.90;;;;;;5010732;28;20208;-50
2022/02/27 02:45:03;;;;;;;10.23;7.03;;;2.70;99.90;;;;;;5012077;28;20474;-52
2022/02/27 02:47:28;;;;;;;10.10;6.47;;;2.80;99.90;;;;;;5011655;28;20419;-55
2022/02/27 02:49:54;;;;;;;8.73;6.40;;;2.80;99.90;;;;;;5011988;28;20939;-52
2022/02/27 02:52:20;;;;;;;8.23;6.40;;;2.80;99.90;;;;;;5011927;28;20226;-51
2022/02/27 02:54:45;;;;;;;9.70;6.30;;;2.80;99.90;;;;;;5129875;23;20326;-49
2022/02/27 02:57:11;;;;;;;8.10;6.30;;;2.80;99.90;;;;;;5009965;28;20550;-51
2022/02/27 02:59:36;;;;;;;8.90;6.40;;;2.80;99.90;;;;;;5011371;28;20207;-48
2022/02/27 03:02:03;;;;;;;9.37;7.17;;;2.80;99.90;;;;;;5011528;28;20620;-52
2022/02/27 03:04:29;;;;;;;9.43;7.33;;;2.80;99.90;;;;;;5011351;28;20561;-50
2022/02/27 03:06:54;;;;;;;10.27;6.87;;;2.70;99.90;;;;;;5011430;28;20177;-49
2022/02/27 03:09:20;;;;;;;11.57;6.53;;;2.70;99.90;;;;;;5011674;28;20168;-53
2022/02/27 03:11:46;;;;;;;9.63;6.20;;;2.70;99.90;;;;;;5011567;28;20645;-50
2022/02/27 03:14:12;;;;;;;10.10;5.87;;;2.70;99.90;;;;;;5011353;28;20211;-52
2022/02/27 03:16:37;;;;;;;7.73;5.33;;;2.80;99.90;;;;;;5011413;28;20826;-48
2022/02/27 03:19:03;;;;;;;6.23;5.07;;;2.90;99.90;;;;;;5014198;28;20263;-49
2022/02/27 03:21:28;;;;;;;9.43;5.57;;;2.90;99.90;;;;;;5015460;28;20210;-53
2022/02/27 03:23:54;;;;;;;8.50;5.47;;;3.00;99.90;;;;;;5015363;28;20545;-51
2022/02/27 03:26:21;;;;;;;10.50;5.77;;;3.10;99.90;;;;;;5015285;28;20169;-47
2022/02/27 03:28:47;;;;;;;7.17;5.17;;;3.10;99.90;;;;;;5015255;28;20578;-52
2022/02/27 03:31:13;;;;;;;8.07;5.30;;;3.20;99.90;;;;;;5015102;28;20762;-51
2022/02/27 03:33:38;;;;;;;7.63;5.30;;;3.30;99.90;;;;;;5015229;28;20180;-48
2022/02/27 03:36:04;;;;;;;8.57;5.30;;;3.30;99.90;;;;;;5015017;28;20704;-50
2022/02/27 03:38:29;;;;;;;9.60;5.97;;;3.40;99.90;;;;;;5015100;28;20180;-52
2022/02/27 03:40:55;;;;;;;8.67;5.57;;;3.30;99.90;;;;;;5015128;28;20283;-51
2022/02/27 03:43:20;;;;;;;9.27;5.57;;;3.40;99.90;;;;;;5015256;28;20275;-48
2022/02/27 03:45:46;;;;;;;9.30;5.67;;;3.40;99.90;;;;;;5014742;28;20207;-50
2022/02/27 03:48:11;;;;;;;7.10;5.13;;;3.40;99.90;;;;;;5015062;28;20211;-49
2022/02/27 03:50:37;;;;;;;7.87;4.83;;;3.50;99.90;;;;;;5013723;28;20277;-49
2022/02/27 03:53:03;;;;;;;9.27;5.03;;;3.50;99.90;;;;;;5015003;28;20252;-49
2022/02/27 03:55:28;;;;;;;7.53;5.13;;;3.60;99.90;;;;;;5014543;28;20283;-52
2022/02/27 03:57:54;;;;;;;7.03;4.90;;;3.70;99.90;;;;;;5014582;28;20168;-47
2022/02/27 04:00:19;;;;;;;7.27;4.77;;;3.70;99.90;;;;;;5014955;28;20173;-50
2022/02/27 04:02:46;;;;;;;8.17;5.00;;;3.70;99.90;;;;;;5014459;28;20558;-54
2022/02/27 04:05:13;;;;;;;7.13;4.60;;;3.70;99.90;;;;;;5014479;28;20196;-49
2022/02/27 04:07:39;;;;;;;6.03;4.40;;;3.80;99.90;;;;;;5014373;28;20165;-53
2022/02/27 04:10:05;;;;;;;7.40;4.77;;;3.90;99.90;;;;;;5014767;28;20691;-49
2022/02/27 04:12:31;;;;;;;6.30;4.87;;;3.90;99.90;;;;;;5014598;28;20258;-51
2022/02/27 04:14:57;;;;;;;8.53;4.83;;;3.90;99.90;;;;;;5014624;28;20227;-52
2022/02/27 04:17:22;;;;;;;7.30;5.03;;;4.00;99.90;;;;;;5014260;28;20169;-53
2022/02/27 04:19:48;;;;;;;6.87;5.07;;;4.00;99.90;;;;;;5014429;28;20179;-54
2022/02/27 04:22:13;;;;;;;8.97;5.90;;;4.00;99.90;;;;;;5014470;28;20228;-50
2022/02/27 04:24:39;;;;;;;9.87;6.20;;;4.00;99.90;;;;;;5014303;28;20275;-50
2022/02/27 04:27:04;;;;;;;8.00;5.60;;;4.00;99.90;;;;;;5014083;28;20176;-54
2022/02/27 04:29:30;;;;;;;10.17;5.87;;;4.00;99.90;;;;;;5012990;28;20169;-50
2022/02/27 04:31:55;;;;;;;8.77;5.17;;;4.00;99.90;;;;;;5014277;28;20181;-49
2022/02/27 04:34:21;;;;;;;10.33;5.40;;;4.00;99.90;;;;;;5014181;28;20224;-53
2022/02/27 04:36:46;;;;;;;7.63;5.07;;;4.10;99.90;;;;;;5014101;28;20187;-50
2022/02/27 04:39:12;;;;;;;6.77;5.07;;;4.10;99.90;;;;;;5014292;28;20180;-47
2022/02/27 04:41:40;;;;;;;7.33;5.13;;;4.10;99.90;;;;;;5013971;28;20557;-51
2022/02/27 04:44:05;;;;;;;6.70;5.20;;;4.10;99.90;;;;;;5014024;28;20172;-52
2022/02/27 04:46:31;;;;;;;7.37;5.13;;;4.20;99.90;;;;;;5013589;28;20270;-48
2022/02/27 04:48:56;;;;;;;7.47;5.03;;;4.20;99.90;;;;;;5013961;28;20307;-52
2022/02/27 04:51:22;;;;;;;8.60;5.50;;;4.20;99.90;;;;;;5013902;28;20192;-51
2022/02/27 04:53:49;;;;;;;9.23;5.57;;;4.30;99.90;;;;;;5013944;28;20176;-49
2022/02/27 04:56:15;;;;;;;11.60;5.70;;;4.30;99.90;;;;;;5013419;28;20259;-51
2022/02/27 04:58:41;;;;;;;8.30;5.83;;;4.30;99.90;;;;;;5013619;28;20180;-52
2022/02/27 05:01:06;;;;;;;8.10;5.90;;;4.30;99.90;;;;;;5013598;28;20204;-51
2022/02/27 05:03:32;;;;;;;11.07;5.80;;;4.20;99.90;;;;;;5013746;28;20584;-51
2022/02/27 05:05:57;;;;;;;7.10;5.10;;;4.10;99.90;;;;;;5013178;28;20192;-52
2022/02/27 05:08:23;;;;;;;7.50;5.60;;;4.10;99.90;;;;;;5013684;28;20533;-52
2022/02/27 05:10:48;;;;;;;9.10;5.57;;;4.00;99.90;;;;;;5013493;28;20256;-49
2022/02/27 05:13:14;;;;;;;9.17;5.43;;;4.00;99.90;;;;;;5013145;28;20194;-50
2022/02/27 05:15:39;;;;;;;7.77;5.53;;;4.00;99.90;;;;;;5013081;28;20193;-55
2022/02/27 05:18:05;;;;;;;7.47;5.33;;;3.90;99.90;;;;;;5013421;28;20180;-49
2022/02/27 05:20:30;;;;;;;8.90;5.77;;;3.90;99.90;;;;;;5013311;28;20231;-53
2022/02/27 05:22:56;;;;;;;8.63;6.40;;;3.90;99.90;;;;;;5013299;28;20204;-52
2022/02/27 05:25:23;;;;;;;11.27;6.90;;;4.00;99.90;;;;;;5013222;28;20193;-50
2022/02/27 05:27:51;;;;;;;9.17;6.67;;;4.00;99.90;;;;;;5012871;28;20584;-54
2022/02/27 05:30:18;;;;;;;9.47;6.33;;;4.00;99.90;;;;;;5013152;28;20173;-50
2022/02/27 05:32:45;;;;;;;7.60;5.47;;;3.90;99.90;;;;;;5013300;28;20173;-50
2022/02/27 05:35:10;;;;;;;7.73;5.30;;;4.00;99.90;;;;;;5012903;28;20203;-51
2022/02/27 05:37:36;;;;;;;8.00;5.33;;;4.00;99.90;;;;;;5012840;28;20176;-50
2022/02/27 05:40:04;;;;;;;8.37;5.50;;;4.00;99.90;;;;;;5013038;28;20186;-50
2022/02/27 05:42:30;;;;;;;8.23;5.57;;;4.00;99.90;;;;;;5012475;28;20209;-50
2022/02/27 05:44:55;;;;;;;8.20;5.43;;;4.10;99.90;;;;;;5012873;28;20291;-51
2022/02/27 05:47:21;;;;;;;7.40;5.43;;;4.10;99.90;;;;;;5012677;28;20230;-49
2022/02/27 05:49:46;;;;;;;7.77;5.80;;;4.10;99.90;;;;;;5012726;28;20180;-50
2022/02/27 05:52:12;;;;;;;7.20;5.40;;;4.00;99.90;;;;;;5012878;28;20180;-50
2022/02/27 05:54:38;;;;;;;8.30;5.20;;;4.00;99.90;;;;;;5012736;28;20685;-49
2022/02/27 05:57:03;;;;;;;8.97;6.30;;;4.10;99.90;;;;;;5012460;28;20650;-51
2022/02/27 05:59:29;;;;;;;8.93;5.47;;;4.10;99.90;;;;;;5012657;28;20230;-47
2022/02/27 06:01:54;;;;;;;9.63;5.70;;;4.00;99.90;;;;;;5012693;28;20232;-52
2022/02/27 06:04:21;;;;;;;8.37;5.00;;;3.90;99.90;;;;;;5012454;28;20193;-50
2022/02/27 06:06:47;;;;;;;8.37;5.63;;;3.80;99.90;;;;;;5012319;28;20184;-51
2022/02/27 06:09:13;;;;;;;6.80;5.10;;;3.70;99.90;;;;;;5012649;28;20233;-51
2022/02/27 06:11:38;;;;;;;7.47;4.87;;;3.50;99.90;;;;;;5012461;28;20541;-50
2022/02/27 06:14:04;;;;;;;7.70;5.27;;;3.30;99.90;;;;;;5012379;28;20181;-50
2022/02/27 06:16:30;;;;;;;7.73;5.77;;;3.30;99.90;;;;;;5010988;28;20184;-49
2022/02/27 06:18:55;;;;;;;7.27;5.37;;;3.20;99.90;;;;;;5012344;28;20549;-55
2022/02/27 06:21:21;;;;;;;7.67;5.53;;;3.20;99.90;;;;;;5011044;28;20200;-50
2022/02/27 06:23:47;;;;;;;6.70;5.50;;;3.30;99.90;;;;;;5012432;28;20242;-50
2022/02/27 06:26:13;;;;;;;7.80;5.17;;;3.30;99.90;;;;;;5011967;28;20199;-49
2022/02/27 06:28:38;;;;;;;6.70;4.93;;;3.30;99.90;;;;;;5012082;28;20172;-52
2022/02/27 06:31:04;;;;;;;7.27;5.17;;;3.40;99.90;;;;;;5012312;28;20177;-47
2022/02/27 06:33:29;;;;;;;7.40;4.70;;;3.40;99.90;;;;;;5012179;28;20662;-49
2022/02/27 06:35:55;;;;;;;8.17;4.90;;;3.50;99.90;;;;;;5011848;28;20672;-50
2022/02/27 06:38:21;;;;;;;7.77;5.10;;;3.60;99.90;;;;;;5012039;28;20238;-52
2022/02/27 06:40:47;;;;;;;5.00;4.30;;;3.60;99.90;;;;;;5012087;28;20180;-53
2022/02/27 06:43:12;;;;;;;8.10;5.27;;;3.70;99.90;;;;;;5012121;28;20172;-50
2022/02/27 06:45:38;;;;;;;5.63;4.40;;;3.70;99.90;;;;;;5011629;28;20184;-49
2022/02/27 06:48:04;;;;;;;6.13;4.23;;;3.70;99.90;;;;;;5012089;28;20176;-50
2022/02/27 06:50:29;;;;;;;5.90;4.20;;;3.80;99.90;;;;;;5011083;28;20173;-52
2022/02/27 06:52:55;;;;;;;6.50;4.53;;;3.90;99.90;;;;;;5013289;28;20245;-52
2022/02/27 06:55:20;;;;;;;7.07;4.70;;;4.00;99.90;;;;;;5015864;28;20212;-53
2022/02/27 06:57:47;;;;;;;7.40;5.40;;;4.20;99.90;;;;;;5015729;28;20211;-49
2022/02/27 07:00:14;;;;;;;7.97;5.47;;;4.20;99.90;;;;;;5016328;28;20657;-49
2022/02/27 07:02:40;;;;;;;7.93;5.47;;;4.30;99.90;;;;;;5015882;28;20307;-50
2022/02/27 07:05:07;;;;;;;6.30;5.20;;;4.40;99.90;;;;;;5015814;28;20192;-50
2022/02/27 07:07:33;;;;;;;7.60;4.40;;;4.50;99.90;;;;;;5014322;28;20541;-50
2022/02/27 07:10:02;;;;;;;5.73;4.10;;;4.50;99.90;;;;;;5015886;28;20165;-51
2022/02/27 07:12:32;;;;;;;7.67;4.50;;;4.50;99.90;;;;;;5015664;28;20168;-51
2022/02/27 07:14:57;;;;;;;6.60;4.63;;;4.50;99.90;;;;;;5015674;28;20286;-49
2022/02/27 07:17:25;;;;;;;7.43;4.73;;;4.60;99.90;;;;;;5015409;28;20260;-51
2022/02/27 07:19:51;;;;;;;9.10;5.10;;;4.70;99.90;;;;;;5015649;28;20546;-50
2022/02/27 07:22:16;;;;;;;6.80;4.67;;;4.70;99.90;;;;;;5015476;28;20188;-54
2022/02/27 07:24:42;;;;;;;7.17;5.07;;;4.80;99.90;;;;;;5015527;28;20197;-50
2022/02/27 07:27:07;;;;;;;6.00;4.33;;;4.90;99.90;;;;;;5015214;28;20238;-52
2022/02/27 07:29:33;;;;;;;14.17;9.30;;;5.00;99.90;;;;;;5015077;28;20207;-51
2022/02/27 07:31:59;;;;;;;6.47;4.97;;;5.00;99.90;;;;;;5015118;28;20181;-48
2022/02/27 07:34:26;;;;;;;6.00;4.70;;;5.00;99.90;;;;;;5015349;28;20188;-53
2022/02/27 07:36:54;;;;;;;6.60;5.30;;;5.10;99.90;;;;;;5015072;28;20183;-50
2022/02/27 07:39:20;;;;;;;8.43;5.27;;;5.20;99.90;;;;;;5015157;28;20810;-53
2022/02/27 07:41:46;;;;;;;7.23;5.10;;;5.50;99.90;;;;;;5015010;28;20854;-50
2022/02/27 07:44:12;;;;;;;6.37;4.97;;;5.60;99.90;;;;;;5015180;28;20196;-50
2022/02/27 07:46:37;;;;;;;7.23;5.30;;;5.60;99.90;;;;;;5014825;28;20180;-50
2022/02/27 07:49:03;;;;;;;7.03;5.70;;;5.80;99.90;;;;;;5015113;28;20172;-53
2022/02/27 07:51:29;;;;;;;7.57;5.90;;;5.80;99.90;;;;;;5014941;28;20208;-51
2022/02/27 07:53:55;;;;;;;6.77;5.67;;;5.80;99.90;;;;;;5014757;28;20642;-53
2022/02/27 07:56:21;;;;;;;7.67;6.17;;;5.90;99.90;;;;;;5014398;28;20267;-53
2022/02/27 07:58:46;;;;;;;7.97;6.20;;;5.80;99.90;;;;;;5014870;28;20203;-52
2022/02/27 08:01:12;;;;;;;7.23;5.97;;;5.70;99.90;;;;;;5014469;28;20661;-50
2022/02/27 08:03:37;;;;;;;7.20;5.83;;;5.60;99.90;;;;;;5014447;28;20173;-50
2022/02/27 08:06:03;;;;;;;7.90;6.13;;;5.60;99.90;;;;;;5014442;28;20188;-50
2022/02/27 08:08:29;;;;;;;7.57;5.53;;;5.70;99.90;;;;;;5014670;28;20173;-48
2022/02/27 08:10:54;;;;;;;7.43;5.97;;;5.60;99.90;;;;;;5014738;28;20192;-52
2022/02/27 08:13:20;;;;;;;6.20;5.33;;;7.80;99.90;;;;;;5014584;28;20172;-51
2022/02/27 08:15:45;;;;;;;7.37;5.80;;;6.30;99.90;;;;;;5014261;28;20271;-54
2022/02/27 08:18:11;;;;;;;9.87;7.97;;;6.50;99.90;;;;;;5014583;28;20684;-52
2022/02/27 08:20:37;;;;;;;8.07;6.40;;;6.80;99.90;;;;;;5014662;28;20199;-52
2022/02/27 08:23:03;;;;;;;7.33;6.17;;;6.90;99.90;;;;;;5014306;28;20665;-50
2022/02/27 08:25:28;;;;;;;8.93;7.20;;;7.10;99.90;;;;;;5014271;28;20188;-50
2022/02/27 08:27:54;;;;;;;8.63;7.20;;;7.30;99.90;;;;;;5014222;28;20180;-50
2022/02/27 08:30:19;;;;;;;8.87;7.10;;;7.70;99.90;;;;;;5014354;28;20179;-55
2022/02/27 08:32:50;;;;;;;9.27;7.60;;;7.90;99.90;;;;;;5014244;28;20183;-50
2022/02/27 08:35:18;;;;;;;8.43;7.20;;;8.20;99.90;;;;;;5014250;28;20196;-49
2022/02/27 08:37:44;;;;;;;7.53;6.40;;;8.70;99.90;;;;;;5013955;28;20184;-47
2022/02/27 08:40:10;;;;;;;8.33;6.73;;;9.30;99.80;;;;;;5014149;28;20187;-54
2022/02/27 08:42:35;;;;;;;7.07;5.67;;;9.90;98.90;;;;;;5013913;28;20855;-52
2022/02/27 08:45:01;;;;;;;7.93;5.93;;;10.50;96.90;;;;;;5013996;28;20267;-50
2022/02/27 08:47:27;;;;;;;8.57;6.40;;;11.10;95.20;;;;;;5013752;28;20176;-55
2022/02/27 08:49:52;;;;;;;6.07;5.30;;;11.40;94.00;;;;;;5014038;28;20577;-51
2022/02/27 08:52:18;;;;;;;6.93;4.83;;;12.20;93.80;;;;;;5013945;28;20211;-56
2022/02/27 08:54:46;;;;;;;5.57;4.63;;;13.00;90.80;;;;;;5027317;23;20223;-58
2022/02/27 08:57:12;;;;;;;7.03;4.70;;;13.90;88.60;;;;;;5009292;28;20173;-60
2022/02/27 08:59:37;;;;;;;5.47;4.40;;;14.70;85.00;;;;;;5012085;28;20207;-58
2022/02/27 09:02:04;;;;;;;5.90;4.40;;;15.60;79.10;;;;;;5012807;28;20634;-59
2022/02/27 09:04:29;;;;;;;5.13;4.60;;;15.80;76.80;;;;;;5012372;28;20173;-60
2022/02/27 09:06:55;;;;;;;5.43;4.70;;;15.70;72.10;;;;;;5012273;28;20833;-56
2022/02/27 09:09:21;;;;;;;4.80;4.30;;;15.10;73.70;;;;;;5012840;28;20176;-57
2022/02/27 09:11:46;;;;;;;4.53;4.10;;;17.30;77.40;;;;;;5012703;28;20601;-60
2022/02/27 09:14:12;;;;;;;4.93;4.43;;;16.50;72.30;;;;;;5012526;28;20248;-60
2022/02/27 09:16:37;;;;;;;6.13;5.50;;;17.70;68.80;;;;;;5011608;28;20199;-58
2022/02/27 09:19:03;;;;;;;5.77;4.87;;;18.40;64.60;;;;;;5012852;28;20208;-57
2022/02/27 09:21:28;;;;;;;5.63;4.90;;;19.00;64.10;;;;;;5012631;28;20208;-56
2022/02/27 09:23:55;;;;;;;5.28;4.43;;;20.20;58.20;;;;;;5012670;28;20262;-57
2022/02/27 09:26:24;;;;;;;11.68;9.93;;;21.00;56.20;;;;;;5012511;28;20192;-60
2022/02/27 09:28:50;;;;;;;4.80;4.32;;;21.30;56.20;;;;;;5012199;28;20200;-55
2022/02/27 09:31:16;;;;;;;4.20;3.80;;;23.00;54.10;;;;;;5012129;28;20215;-58
2022/02/27 09:33:42;;;;;;;4.22;3.83;;;24.60;49.90;;;;;;5012503;28;20204;-57
2022/02/27 09:36:10;;;;;;;5.28;4.25;;;25.70;45.70;;;;;;5012070;28;20200;-59
2022/02/27 09:38:36;;;;;;;4.22;3.78;;;24.80;44.30;;;;;;5012391;28;20608;-58
2022/02/27 09:41:03;;;;;;;4.88;4.28;;;24.20;43.10;;;;;;5012451;28;20264;-59
2022/02/27 09:43:28;;;;;;;4.90;4.15;;;23.30;44.20;;;;;;5012455;28;20244;-61
2022/02/27 09:45:54;;;;;;;4.47;4.07;;;22.90;43.50;;;;;;5011917;28;20673;-59
2022/02/27 09:48:21;;;;;;;5.53;5.03;;;20.80;44.20;;;;;;5012522;28;20170;-57
2022/02/27 09:50:50;;;;;;;5.03;4.50;;;18.90;46.80;;;;;;5012083;28;20165;-55
2022/02/27 09:53:17;;;;;;;5.17;4.60;;;18.50;48.20;;;;;;5012378;28;20176;-57
2022/02/27 09:55:42;;;;;;;5.77;4.70;;;17.90;48.40;;;;;;4976014;28;1045434;-55
2022/02/27 09:58:08;;;;;;;5.27;4.30;;;16.80;49.20;;;;;;5012987;28;20171;-58
2022/02/27 10:00:33;;;;;;;5.23;4.73;;;16.00;50.60;;;;;;5013022;28;20683;-56
2022/02/27 10:03:16;;;;;;;6.27;5.00;;;15.20;51.90;;;;;;5012626;28;20223;-59
2022/02/27 10:05:47;;;;;;;5.47;4.90;;;14.10;53.80;;;;;;5012230;28;20257;-57
2022/02/27 10:08:14;;;;;;;7.23;4.90;;;13.10;55.30;;;;;;5012930;28;20184;-55
2022/02/27 10:10:54;;;;;;;5.43;4.50;;;12.40;56.60;;;;;;5012950;28;20181;-57
2022/02/27 10:13:37;;;;;;;5.57;4.70;;;11.70;58.00;;;;;;5012657;28;20231;-57
2022/02/27 10:16:09;;;;;;;5.87;4.50;;;11.10;59.80;;;;;;5012677;28;20220;-57
2022/02/27 10:18:38;;;;;;;5.83;4.40;;;12.40;61.00;;;;;;5012494;28;20165;-54
2022/02/27 10:21:04;;;;;;;5.53;4.40;;;15.70;57.20;;;;;;5012650;28;20255;-59
2022/02/27 10:23:29;;;;;;;6.03;4.38;;;19.50;52.30;;;;;;5012479;28;20707;-58
2022/02/27 10:25:55;;;;;;;6.22;4.50;;;22.00;46.90;;;;;;5012014;28;20663;-58
2022/02/27 10:28:21;;;;;;;5.60;4.60;;;21.00;46.30;;;;;;5012348;28;20208;-58
2022/02/27 10:30:48;;;;;;;5.10;4.60;;;19.40;46.30;;;;;;5012356;28;20192;-56
2022/02/27 10:33:13;;;;;;;6.10;4.70;;;17.60;48.30;;;;;;5012448;28;20206;-57
2022/02/27 10:35:46;;;;;;;5.60;4.50;;;15.90;50.10;;;;;;5012075;28;20268;-59
2022/02/27 10:38:45;;;;;;;7.13;5.00;;;14.50;52.20;;;;;;5012402;28;20231;-58
2022/02/27 10:41:16;;;;;;;5.47;4.60;;;13.30;53.20;;;;;;5012412;28;20176;-54
2022/02/27 10:43:43;;;;;;;6.13;4.90;;;12.40;55.40;;;;;;5012520;28;20254;-55
2022/02/27 10:46:10;;;;;;;6.73;4.97;;;11.80;57.10;;;;;;5011894;28;20200;-55
2022/02/27 10:48:36;;;;;;;5.83;4.80;;;11.30;58.60;;;;;;5012106;28;20234;-56
2022/02/27 10:51:06;;;;;;;6.53;4.77;;;11.10;58.70;;;;;;5012267;28;20639;-57
2022/02/27 10:53:41;;;;;;;5.97;4.77;;;10.50;59.50;;;;;;5012190;28;20176;-58
2022/02/27 10:56:08;;;;;;;5.33;4.27;;;10.50;62.00;;;;;;5011748;28;20713;-56
2022/02/27 10:58:40;;;;;;;5.80;4.40;;;11.80;60.80;;;;;;5011959;28;20186;-55
2022/02/27 11:01:22;;;;;;;7.90;5.00;;;12.90;58.40;;;;;;5011915;28;20643;-53
2022/02/27 11:03:50;;;;;;;6.37;4.80;;;13.50;56.50;;;;;;5012145;28;20644;-58
2022/02/27 11:06:16;;;;;;;6.57;4.50;;;13.20;56.40;;;;;;5011781;28;20199;-57
2022/02/27 11:08:42;;;;;;;4.40;4.00;;;13.30;57.60;;;;;;5011899;28;20180;-58
2022/02/27 11:11:08;;;;;;;7.17;4.40;;;15.80;55.30;;;;;;5012124;28;20561;-58
2022/02/27 11:13:34;;;;;;;5.18;4.15;;;19.20;52.10;;;;;;5011945;28;20180;-56
2022/02/27 11:16:02;;;;;;;4.70;4.20;;;22.00;46.50;;;;;;5011557;28;20675;-59
2022/02/27 11:18:28;;;;;;;5.35;4.25;;;22.40;45.00;;;;;;5012037;28;20220;-59
2022/02/27 11:20:55;;;;;;;5.00;4.22;;;22.00;44.60;;;;;;5011965;28;20176;-58
2022/02/27 11:23:20;;;;;;;5.10;4.60;;;21.80;44.50;;;;;;5012080;28;20183;-61
2022/02/27 11:25:46;;;;;;;4.60;4.20;;;21.40;44.20;;;;;;5011791;28;20190;-59
2022/02/27 11:28:16;;;;;;;4.93;4.43;;;20.20;45.00;;;;;;5011809;28;20412;-59
2022/02/27 11:30:46;;;;;;;6.53;4.50;;;19.40;45.80;;;;;;5012129;28;20164;-59
2022/02/27 11:33:19;;;;;;;6.87;4.67;;;18.30;46.50;;;;;;5012016;28;20196;-59
2022/02/27 11:35:49;;;;;;;7.03;4.70;;;17.40;47.70;;;;;;5011476;28;20182;-58
2022/02/27 11:38:31;;;;;;;5.07;4.37;;;16.30;48.90;;;;;;5012111;28;20165;-59
2022/02/27 11:41:10;;;;;;;6.03;4.47;;;15.10;50.70;;;;;;5015226;28;20176;-58
2022/02/27 11:43:57;;;;;;;4.70;4.20;;;13.50;52.40;;;;;;5015404;28;20168;-61
2022/02/27 11:46:44;;;;;;;4.43;3.93;;;13.80;54.00;;;;;;5015227;28;20185;-56
2022/02/27 11:49:15;;;;;;;4.30;3.90;;;15.70;49.00;;;;;;5015313;28;20177;-58
2022/02/27 11:51:51;;;;;;;5.83;4.37;;;17.00;46.90;;;;;;5015371;28;20200;-58
2022/02/27 11:54:18;;;;;;;5.70;4.28;;;18.50;46.20;;;;;;5015016;28;20243;-59
2022/02/27 11:57:04;;;;;;;5.50;4.27;;;19.30;45.30;;;;;;5014656;28;20244;-60
2022/02/27 11:59:48;;;;;;;5.40;4.00;;;16.90;45.00;;;;;;5014926;28;20180;-58
2022/02/27 12:02:21;;;;;;;5.03;3.90;;;17.00;46.30;;;;;;5015165;28;20211;-57
2022/02/27 12:04:49;;;;;;;5.75;4.47;;;18.80;44.70;;;;;;5015202;28;20604;-59
2022/02/27 12:07:15;;;;;;;4.35;3.65;;;18.60;43.00;;;;;;5014896;28;20184;-58
2022/02/27 12:09:52;;;;;;;4.20;3.80;;;19.30;44.00;;;;;;5015127;28;20589;-57
2022/02/27 12:12:37;;;;;;;4.47;3.80;;;20.30;43.10;;;;;;5015046;28;20208;-59
2022/02/27 12:15:20;;;;;;;4.10;3.70;;;20.40;42.50;;;;;;5015558;28;20201;-56
2022/02/27 12:18:08;;;;;;;4.82;3.95;;;20.50;43.00;;;;;;5015162;28;20165;-61
2022/02/27 12:20:39;;;;;;;4.32;3.80;;;21.80;41.80;;;;;;5015636;28;20173;-60
2022/02/27 12:23:06;;;;;;;4.07;3.67;;;23.20;41.20;;;;;;5015382;28;20626;-58
2022/02/27 12:25:40;;;;;;;4.10;3.70;;;24.80;38.80;;;;;;5014871;28;20212;-60
2022/02/27 12:28:06;;;;;;;4.25;3.85;;;25.70;37.40;;;;;;5015622;28;20192;-60
2022/02/27 12:30:31;;;;;;;5.25;4.10;;;25.60;36.80;;;;;;5015476;28;20173;-59
2022/02/27 12:33:08;;;;;;;4.47;4.05;;;24.70;36.00;;;;;;5015695;28;20251;-59
2022/02/27 12:35:35;;;;;;;4.32;3.92;;;23.70;37.90;;;;;;5015507;28;20565;-59
2022/02/27 12:38:13;;;;;;;5.60;4.30;;;22.50;38.50;;;;;;5015689;28;20177;-61
2022/02/27 12:40:39;;;;;;;5.90;4.30;;;21.60;39.10;;;;;;5015650;28;20252;-59
2022/02/27 12:43:06;;;;;;;4.65;4.00;;;20.50;39.60;;;;;;5015817;28;20180;-56
2022/02/27 12:45:34;;;;;;;5.05;4.55;;;20.00;39.50;;;;;;5014504;28;20227;-54
2022/02/27 12:48:15;;;;;;;4.60;3.92;;;20.20;40.50;;;;;;5014760;28;20180;-54
2022/02/27 12:50:46;;;;;;;4.80;4.10;;;20.30;40.60;;;;;;5013706;28;20180;-58
2022/02/27 12:53:12;;;;;;;4.45;3.88;;;20.30;38.70;;;;;;5014722;28;20235;-57